sensor_id;sensor_type;location;lat;lon;timestamp;temperature;humidity
11538;DHT22;50159;49.426;11.182;2023-04-25T00:00:16;8.00;99.90
11538;DHT22;50159;49.426;11.182;2023-04-25T00:02:43;8.00;99.90
11538;DHT22;50159;49.426;11.182;2023-04-25T00:05:10;8.00;99.90
11538;DHT22;50159;49.426;11.182;2023-04-25T00:07:37;8.00;99.90
11538;DHT22;50159;49.426;11.182;2023-04-25T00:10:05;8.00;99.90
11538;DHT22;50159;49.426;11.182;2023-04-25T00:12:32;8.10;99.90
11538;DHT22;50159;49.426;11.182;2023-04-25T00:14:59;8.10;99.90
11538;DHT22;50159;49.426;11.182;2023-04-25T00:17:26;8.10;99.90
11538;DHT22;50159;49.426;11.182;2023-04-25T00:19:53;8.10;99.90
11538;DHT22;50159;49.426;11.182;2023-04-25T00:22:20;8.10;99.90
11538;DHT22;50159;49.426;11.182;2023-04-25T00:24:47;8.10;99.90
11538;DHT22;50159;49.426;11.182;2023-04-25T00:27:14;8.00;99.90
11538;DHT22;50159;49.426;11.182;2023-04-25T00:29:40;8.10;99.90
11538;DHT22;50159;49.426;11.182;2023-04-25T00:32:07;8.10;99.90
11538;DHT22;50159;49.426;11.182;2023-04-25T00:34:34;8.10;99.90
11538;DHT22;50159;49.426;11.182;2023-04-25T00:37:00;8.10;99.90
11538;DHT22;50159;49.426;11.182;2023-04-25T00:39:30;8.10;99.90
11538;DHT22;50159;49.426;11.182;2023-04-25T00:41:58;8.20;99.90
11538;DHT22;50159;49.426;11.182;2023-04-25T00:44:26;8.10;99.90
11538;DHT22;50159;49.426;11.182;2023-04-25T00:46:55;8.20;99.90
11538;DHT22;50159;49.426;11.182;2023-04-25T00:49:22;8.20;99.90
11538;DHT22;50159;49.426;11.182;2023-04-25T00:51:48;8.20;99.90
11538;DHT22;50159;49.426;11.182;2023-04-25T00:54:15;8.10;99.90
11538;DHT22;50159;49.426;11.182;2023-04-25T00:56:42;8.10;99.90
11538;DHT22;50159;49.426;11.182;2023-04-25T00:59:11;8.00;99.90
11538;DHT22;50159;49.426;11.182;2023-04-25T01:01:39;8.00;99.90
11538;DHT22;50159;49.426;11.182;2023-04-25T01:04:06;8.00;99.90
11538;DHT22;50159;49.426;11.182;2023-04-25T01:06:33;8.00;99.90
11538;DHT22;50159;49.426;11.182;2023-04-25T01:09:00;8.00;99.90
11538;DHT22;50159;49.426;11.182;2023-04-25T01:11:28;8.00;99.90
11538;DHT22;50159;49.426;11.182;2023-04-25T01:13:54;8.00;99.90
11538;DHT22;50159;49.426;11.182;2023-04-25T01:16:21;8.00;99.90
11538;DHT22;50159;49.426;11.182;2023-04-25T01:18:50;8.00;99.90
11538;DHT22;50159;49.426;11.182;2023-04-25T01:21:17;8.00;99.90
11538;DHT22;50159;49.426;11.182;2023-04-25T01:23:44;8.00;99.90
11538;DHT22;50159;49.426;11.182;2023-04-25T01:26:12;8.00;99.90
11538;DHT22;50159;49.426;11.182;2023-04-25T01:28:40;7.90;99.90
11538;DHT22;50159;49.426;11.182;2023-04-25T01:31:11;7.80;99.90
11538;DHT22;50159;49.426;11.182;2023-04-25T01:33:37;7.80;99.90
11538;DHT22;50159;49.426;11.182;2023-04-25T01:36:04;7.70;99.90
11538;DHT22;50159;49.426;11.182;2023-04-25T01:38:31;7.70;99.90
11538;DHT22;50159;49.426;11.182;2023-04-25T01:40:59;7.60;99.90
11538;DHT22;50159;49.426;11.182;2023-04-25T01:43:26;7.70;99.90
11538;DHT22;50159;49.426;11.182;2023-04-25T01:45:53;7.70;99.90
11538;DHT22;50159;49.426;11.182;2023-04-25T01:48:20;7.80;99.90
11538;DHT22;50159;49.426;11.182;2023-04-25T01:50:47;7.80;99.90
11538;DHT22;50159;49.426;11.182;2023-04-25T01:53:14;7.70;99.90
11538;DHT22;50159;49.426;11.182;2023-04-25T01:55:41;7.70;99.90
11538;DHT22;50159;49.426;11.182;2023-04-25T01:58:08;7.60;99.90
11538;DHT22;50159;49.426;11.182;2023-04-25T02:00:36;7.70;99.90
11538;DHT22;50159;49.426;11.182;2023-04-25T02:03:07;7.70;99.90
11538;DHT22;50159;49.426;11.182;2023-04-25T02:05:39;7.60;99.90
11538;DHT22;50159;49.426;11.182;2023-04-25T02:08:07;7.60;99.90
11538;DHT22;50159;49.426;11.182;2023-04-25T02:10:34;7.60;99.90
11538;DHT22;50159;49.426;11.182;2023-04-25T02:13:01;7.60;99.90
11538;DHT22;50159;49.426;11.182;2023-04-25T02:15:28;7.60;99.90
11538;DHT22;50159;49.426;11.182;2023-04-25T02:17:55;7.60;99.90
11538;DHT22;50159;49.426;11.182;2023-04-25T02:20:23;7.60;99.90
11538;DHT22;50159;49.426;11.182;2023-04-25T02:22:50;7.50;99.90
11538;DHT22;50159;49.426;11.182;2023-04-25T02:25:18;7.50;99.90
11538;DHT22;50159;49.426;11.182;2023-04-25T02:27:47;7.50;99.90
11538;DHT22;50159;49.426;11.182;2023-04-25T02:30:14;7.50;99.90
11538;DHT22;50159;49.426;11.182;2023-04-25T02:32:40;7.50;99.90
11538;DHT22;50159;49.426;11.182;2023-04-25T02:35:08;7.60;99.90
11538;DHT22;50159;49.426;11.182;2023-04-25T02:37:36;7.50;99.90
11538;DHT22;50159;49.426;11.182;2023-04-25T02:40:03;7.40;99.90
11538;DHT22;50159;49.426;11.182;2023-04-25T02:42:31;7.40;99.90
11538;DHT22;50159;49.426;11.182;2023-04-25T02:44:57;7.40;99.90
11538;DHT22;50159;49.426;11.182;2023-04-25T02:47:24;7.30;99.90
11538;DHT22;50159;49.426;11.182;2023-04-25T02:49:51;7.30;99.90
11538;DHT22;50159;49.426;11.182;2023-04-25T02:52:18;7.30;99.90
11538;DHT22;50159;49.426;11.182;2023-04-25T02:54:44;7.30;99.90
11538;DHT22;50159;49.426;11.182;2023-04-25T02:57:11;7.20;99.90
11538;DHT22;50159;49.426;11.182;2023-04-25T02:59:38;7.20;99.90
11538;DHT22;50159;49.426;11.182;2023-04-25T03:02:04;7.20;99.90
11538;DHT22;50159;49.426;11.182;2023-04-25T03:04:31;7.20;99.90
11538;DHT22;50159;49.426;11.182;2023-04-25T03:06:59;7.20;99.90
11538;DHT22;50159;49.426;11.182;2023-04-25T03:09:26;7.20;99.90
11538;DHT22;50159;49.426;11.182;2023-04-25T03:11:53;7.20;99.90
11538;DHT22;50159;49.426;11.182;2023-04-25T03:14:19;7.20;99.90
11538;DHT22;50159;49.426;11.182;2023-04-25T03:16:46;7.20;99.90
11538;DHT22;50159;49.426;11.182;2023-04-25T03:19:13;7.20;99.90
11538;DHT22;50159;49.426;11.182;2023-04-25T03:21:42;7.10;99.90
11538;DHT22;50159;49.426;11.182;2023-04-25T03:24:09;7.10;99.90
11538;DHT22;50159;49.426;11.182;2023-04-25T03:26:37;7.00;99.90
11538;DHT22;50159;49.426;11.182;2023-04-25T03:29:04;7.00;99.90
11538;DHT22;50159;49.426;11.182;2023-04-25T03:31:30;7.00;99.90
11538;DHT22;50159;49.426;11.182;2023-04-25T03:33:57;7.00;99.90
11538;DHT22;50159;49.426;11.182;2023-04-25T03:36:24;7.00;99.90
11538;DHT22;50159;49.426;11.182;2023-04-25T03:38:51;7.00;99.90
11538;DHT22;50159;49.426;11.182;2023-04-25T03:41:17;7.00;99.90
11538;DHT22;50159;49.426;11.182;2023-04-25T03:43:44;7.00;99.90
11538;DHT22;50159;49.426;11.182;2023-04-25T03:46:11;7.00;99.90
11538;DHT22;50159;49.426;11.182;2023-04-25T03:48:37;7.00;99.90
11538;DHT22;50159;49.426;11.182;2023-04-25T03:51:04;7.00;99.90
11538;DHT22;50159;49.426;11.182;2023-04-25T03:53:31;7.00;99.90
11538;DHT22;50159;49.426;11.182;2023-04-25T03:55:57;7.00;99.90
11538;DHT22;50159;49.426;11.182;2023-04-25T03:58:24;6.90;99.90
11538;DHT22;50159;49.426;11.182;2023-04-25T04:00:51;6.90;99.90
11538;DHT22;50159;49.426;11.182;2023-04-25T04:03:17;6.90;99.90
11538;DHT22;50159;49.426;11.182;2023-04-25T04:05:44;6.90;99.90
11538;DHT22;50159;49.426;11.182;2023-04-25T04:08:11;6.90;99.90
11538;DHT22;50159;49.426;11.182;2023-04-25T04:10:38;6.90;99.90
11538;DHT22;50159;49.426;11.182;2023-04-25T04:13:05;6.90;99.90
11538;DHT22;50159;49.426;11.182;2023-04-25T04:15:32;6.90;99.90
11538;DHT22;50159;49.426;11.182;2023-04-25T04:17:59;6.90;99.90
11538;DHT22;50159;49.426;11.182;2023-04-25T04:20:29;6.90;99.90
11538;DHT22;50159;49.426;11.182;2023-04-25T04:22:57;7.00;99.90
11538;DHT22;50159;49.426;11.182;2023-04-25T04:25:23;7.00;99.90
11538;DHT22;50159;49.426;11.182;2023-04-25T04:27:51;7.00;99.90
11538;DHT22;50159;49.426;11.182;2023-04-25T04:30:24;7.10;99.90
11538;DHT22;50159;49.426;11.182;2023-04-25T04:32:51;7.10;99.90
11538;DHT22;50159;49.426;11.182;2023-04-25T04:35:18;7.20;99.90
11538;DHT22;50159;49.426;11.182;2023-04-25T04:37:45;7.20;99.90
11538;DHT22;50159;49.426;11.182;2023-04-25T04:40:13;7.20;99.90
11538;DHT22;50159;49.426;11.182;2023-04-25T04:42:45;7.30;99.90
11538;DHT22;50159;49.426;11.182;2023-04-25T04:45:14;7.30;99.90
11538;DHT22;50159;49.426;11.182;2023-04-25T04:47:41;7.30;99.90
11538;DHT22;50159;49.426;11.182;2023-04-25T04:50:08;7.30;99.90
11538;DHT22;50159;49.426;11.182;2023-04-25T04:52:36;7.30;99.90
11538;DHT22;50159;49.426;11.182;2023-04-25T04:55:04;7.30;99.90
11538;DHT22;50159;49.426;11.182;2023-04-25T04:57:32;7.40;99.90
11538;DHT22;50159;49.426;11.182;2023-04-25T05:00:00;7.40;99.90
11538;DHT22;50159;49.426;11.182;2023-04-25T05:02:27;7.40;99.90
11538;DHT22;50159;49.426;11.182;2023-04-25T05:04:56;7.40;99.90
11538;DHT22;50159;49.426;11.182;2023-04-25T05:07:23;7.40;99.90
11538;DHT22;50159;49.426;11.182;2023-04-25T05:09:50;7.40;99.90
11538;DHT22;50159;49.426;11.182;2023-04-25T05:12:16;7.40;99.90
11538;DHT22;50159;49.426;11.182;2023-04-25T05:14:43;7.50;99.90
11538;DHT22;50159;49.426;11.182;2023-04-25T05:17:10;7.50;99.90
11538;DHT22;50159;49.426;11.182;2023-04-25T05:19:37;7.50;99.90
11538;DHT22;50159;49.426;11.182;2023-04-25T05:22:04;7.50;99.90
11538;DHT22;50159;49.426;11.182;2023-04-25T05:24:31;7.50;99.90
11538;DHT22;50159;49.426;11.182;2023-04-25T05:26:58;7.60;99.90
11538;DHT22;50159;49.426;11.182;2023-04-25T05:29:25;7.70;99.90
11538;DHT22;50159;49.426;11.182;2023-04-25T05:31:51;7.70;99.90
11538;DHT22;50159;49.426;11.182;2023-04-25T05:34:19;7.80;99.90
11538;DHT22;50159;49.426;11.182;2023-04-25T05:36:46;7.80;99.90
11538;DHT22;50159;49.426;11.182;2023-04-25T05:39:15;7.80;99.90
11538;DHT22;50159;49.426;11.182;2023-04-25T05:41:43;7.80;99.90
11538;DHT22;50159;49.426;11.182;2023-04-25T05:44:10;7.80;99.90
11538;DHT22;50159;49.426;11.182;2023-04-25T05:46:37;7.80;99.90
11538;DHT22;50159;49.426;11.182;2023-04-25T05:49:04;7.80;99.90
11538;DHT22;50159;49.426;11.182;2023-04-25T05:51:30;7.70;99.90
11538;DHT22;50159;49.426;11.182;2023-04-25T05:53:57;7.80;99.90
11538;DHT22;50159;49.426;11.182;2023-04-25T05:56:24;7.70;99.90
11538;DHT22;50159;49.426;11.182;2023-04-25T05:58:51;7.70;99.90
11538;DHT22;50159;49.426;11.182;2023-04-25T06:01:17;7.70;99.90
11538;DHT22;50159;49.426;11.182;2023-04-25T06:03:44;7.70;99.90
11538;DHT22;50159;49.426;11.182;2023-04-25T06:06:11;7.70;99.90
11538;DHT22;50159;49.426;11.182;2023-04-25T06:08:38;7.80;99.90
11538;DHT22;50159;49.426;11.182;2023-04-25T06:11:05;7.80;99.90
11538;DHT22;50159;49.426;11.182;2023-04-25T06:13:33;7.80;99.90
11538;DHT22;50159;49.426;11.182;2023-04-25T06:16:00;7.80;99.90
11538;DHT22;50159;49.426;11.182;2023-04-25T06:18:27;7.80;99.90
11538;DHT22;50159;49.426;11.182;2023-04-25T06:20:53;7.80;99.90
11538;DHT22;50159;49.426;11.182;2023-04-25T06:23:20;7.70;99.90
11538;DHT22;50159;49.426;11.182;2023-04-25T06:25:46;7.80;99.90
11538;DHT22;50159;49.426;11.182;2023-04-25T06:28:13;7.80;99.90
11538;DHT22;50159;49.426;11.182;2023-04-25T06:30:40;7.80;99.90
11538;DHT22;50159;49.426;11.182;2023-04-25T06:33:07;7.80;99.90
11538;DHT22;50159;49.426;11.182;2023-04-25T06:35:35;7.90;99.90
11538;DHT22;50159;49.426;11.182;2023-04-25T06:38:02;7.80;99.90
11538;DHT22;50159;49.426;11.182;2023-04-25T06:40:28;7.80;99.90
11538;DHT22;50159;49.426;11.182;2023-04-25T06:42:55;7.80;99.90
11538;DHT22;50159;49.426;11.182;2023-04-25T06:45:21;7.80;99.90
11538;DHT22;50159;49.426;11.182;2023-04-25T06:47:48;7.80;99.90
11538;DHT22;50159;49.426;11.182;2023-04-25T06:50:15;7.80;99.90
11538;DHT22;50159;49.426;11.182;2023-04-25T06:52:42;7.90;99.90
11538;DHT22;50159;49.426;11.182;2023-04-25T06:55:09;7.90;99.90
11538;DHT22;50159;49.426;11.182;2023-04-25T06:57:35;8.00;99.90
11538;DHT22;50159;49.426;11.182;2023-04-25T07:00:03;8.00;99.90
11538;DHT22;50159;49.426;11.182;2023-04-25T07:02:32;8.10;99.90
11538;DHT22;50159;49.426;11.182;2023-04-25T07:04:58;8.10;99.90
11538;DHT22;50159;49.426;11.182;2023-04-25T07:07:26;8.20;99.90
11538;DHT22;50159;49.426;11.182;2023-04-25T07:09:53;8.20;99.90
11538;DHT22;50159;49.426;11.182;2023-04-25T07:12:20;8.20;99.90
11538;DHT22;50159;49.426;11.182;2023-04-25T07:14:46;8.20;99.90
11538;DHT22;50159;49.426;11.182;2023-04-25T07:17:13;8.20;99.90
11538;DHT22;50159;49.426;11.182;2023-04-25T07:19:40;8.10;99.90
11538;DHT22;50159;49.426;11.182;2023-04-25T07:22:06;8.10;99.90
11538;DHT22;50159;49.426;11.182;2023-04-25T07:24:33;8.20;99.90
11538;DHT22;50159;49.426;11.182;2023-04-25T07:27:00;8.20;99.90
11538;DHT22;50159;49.426;11.182;2023-04-25T07:29:28;8.30;99.90
11538;DHT22;50159;49.426;11.182;2023-04-25T07:31:54;8.40;99.90
11538;DHT22;50159;49.426;11.182;2023-04-25T07:34:21;8.60;99.90
11538;DHT22;50159;49.426;11.182;2023-04-25T07:36:48;8.80;99.90
11538;DHT22;50159;49.426;11.182;2023-04-25T07:39:14;8.90;99.90
11538;DHT22;50159;49.426;11.182;2023-04-25T07:41:41;9.00;99.90
11538;DHT22;50159;49.426;11.182;2023-04-25T07:44:07;8.80;99.90
11538;DHT22;50159;49.426;11.182;2023-04-25T07:46:34;8.50;99.90
11538;DHT22;50159;49.426;11.182;2023-04-25T07:49:01;8.30;99.90
11538;DHT22;50159;49.426;11.182;2023-04-25T07:51:28;8.10;99.90
11538;DHT22;50159;49.426;11.182;2023-04-25T07:53:54;7.90;99.90
11538;DHT22;50159;49.426;11.182;2023-04-25T07:56:21;7.90;99.90
11538;DHT22;50159;49.426;11.182;2023-04-25T07:58:50;7.80;99.90
11538;DHT22;50159;49.426;11.182;2023-04-25T08:01:17;7.70;99.90
11538;DHT22;50159;49.426;11.182;2023-04-25T08:03:43;7.70;99.90
11538;DHT22;50159;49.426;11.182;2023-04-25T08:06:10;7.80;99.90
11538;DHT22;50159;49.426;11.182;2023-04-25T08:08:38;7.80;99.90
11538;DHT22;50159;49.426;11.182;2023-04-25T08:11:04;7.90;99.90
11538;DHT22;50159;49.426;11.182;2023-04-25T08:13:31;7.90;99.90
11538;DHT22;50159;49.426;11.182;2023-04-25T08:15:58;8.00;99.90
11538;DHT22;50159;49.426;11.182;2023-04-25T08:18:24;8.00;99.90
11538;DHT22;50159;49.426;11.182;2023-04-25T08:20:51;8.00;99.90
11538;DHT22;50159;49.426;11.182;2023-04-25T08:23:18;8.00;99.90
11538;DHT22;50159;49.426;11.182;2023-04-25T08:25:44;8.00;99.90
11538;DHT22;50159;49.426;11.182;2023-04-25T08:28:11;8.00;99.90
11538;DHT22;50159;49.426;11.182;2023-04-25T08:30:38;8.00;99.90
11538;DHT22;50159;49.426;11.182;2023-04-25T08:33:05;7.80;99.90
11538;DHT22;50159;49.426;11.182;2023-04-25T08:35:33;7.70;99.90
11538;DHT22;50159;49.426;11.182;2023-04-25T08:37:59;7.60;99.90
11538;DHT22;50159;49.426;11.182;2023-04-25T08:40:27;7.60;99.90
11538;DHT22;50159;49.426;11.182;2023-04-25T08:43:00;7.70;99.90
11538;DHT22;50159;49.426;11.182;2023-04-25T08:45:32;7.70;99.90
11538;DHT22;50159;49.426;11.182;2023-04-25T08:47:59;7.80;99.90
11538;DHT22;50159;49.426;11.182;2023-04-25T08:50:27;8.00;99.90
11538;DHT22;50159;49.426;11.182;2023-04-25T08:52:54;8.00;99.90
11538;DHT22;50159;49.426;11.182;2023-04-25T08:55:25;8.20;99.90
11538;DHT22;50159;49.426;11.182;2023-04-25T08:57:54;8.40;99.90
11538;DHT22;50159;49.426;11.182;2023-04-25T09:00:22;8.60;99.90
11538;DHT22;50159;49.426;11.182;2023-04-25T09:02:49;8.80;99.90
11538;DHT22;50159;49.426;11.182;2023-04-25T09:05:16;9.00;99.90
11538;DHT22;50159;49.426;11.182;2023-04-25T09:07:47;9.10;99.90
11538;DHT22;50159;49.426;11.182;2023-04-25T09:10:16;9.40;99.90
11538;DHT22;50159;49.426;11.182;2023-04-25T09:12:43;9.80;99.90
11538;DHT22;50159;49.426;11.182;2023-04-25T09:15:12;10.10;99.90
11538;DHT22;50159;49.426;11.182;2023-04-25T09:17:55;10.40;99.90
11538;DHT22;50159;49.426;11.182;2023-04-25T09:20:22;10.70;99.90
11538;DHT22;50159;49.426;11.182;2023-04-25T09:22:49;10.70;99.90
11538;DHT22;50159;49.426;11.182;2023-04-25T09:25:16;10.60;99.20
11538;DHT22;50159;49.426;11.182;2023-04-25T09:27:50;10.30;97.80
11538;DHT22;50159;49.426;11.182;2023-04-25T09:30:19;10.10;98.90
11538;DHT22;50159;49.426;11.182;2023-04-25T09:32:57;9.90;99.90
11538;DHT22;50159;49.426;11.182;2023-04-25T09:35:25;9.70;99.90
11538;DHT22;50159;49.426;11.182;2023-04-25T09:37:55;9.60;99.90
11538;DHT22;50159;49.426;11.182;2023-04-25T09:40:22;9.70;99.90
11538;DHT22;50159;49.426;11.182;2023-04-25T09:42:49;9.90;99.90
11538;DHT22;50159;49.426;11.182;2023-04-25T09:45:15;10.10;99.90
11538;DHT22;50159;49.426;11.182;2023-04-25T09:47:42;10.20;99.60
11538;DHT22;50159;49.426;11.182;2023-04-25T09:50:15;10.40;98.80
11538;DHT22;50159;49.426;11.182;2023-04-25T09:52:43;10.80;99.90
11538;DHT22;50159;49.426;11.182;2023-04-25T09:55:09;11.20;99.90
11538;DHT22;50159;49.426;11.182;2023-04-25T09:57:36;11.60;96.90
11538;DHT22;50159;49.426;11.182;2023-04-25T10:00:07;11.70;92.40
11538;DHT22;50159;49.426;11.182;2023-04-25T10:02:38;11.70;88.50
11538;DHT22;50159;49.426;11.182;2023-04-25T10:05:09;11.80;87.80
11538;DHT22;50159;49.426;11.182;2023-04-25T10:07:37;11.80;84.30
11538;DHT22;50159;49.426;11.182;2023-04-25T10:10:05;11.70;85.50
11538;DHT22;50159;49.426;11.182;2023-04-25T10:12:33;12.10;89.50
11538;DHT22;50159;49.426;11.182;2023-04-25T10:15:01;12.30;84.00
11538;DHT22;50159;49.426;11.182;2023-04-25T10:17:29;12.50;84.50
11538;DHT22;50159;49.426;11.182;2023-04-25T10:19:56;12.90;81.00
11538;DHT22;50159;49.426;11.182;2023-04-25T10:22:30;13.00;76.50
11538;DHT22;50159;49.426;11.182;2023-04-25T10:24:57;12.90;74.70
11538;DHT22;50159;49.426;11.182;2023-04-25T10:27:27;12.80;75.60
11538;DHT22;50159;49.426;11.182;2023-04-25T10:30:05;12.40;72.50
11538;DHT22;50159;49.426;11.182;2023-04-25T10:32:35;12.20;75.60
11538;DHT22;50159;49.426;11.182;2023-04-25T10:35:16;12.30;78.70
11538;DHT22;50159;49.426;11.182;2023-04-25T10:38:15;12.40;76.50
11538;DHT22;50159;49.426;11.182;2023-04-25T10:41:02;12.40;76.80
11538;DHT22;50159;49.426;11.182;2023-04-25T10:43:45;12.40;76.50
11538;DHT22;50159;49.426;11.182;2023-04-25T10:49:04;12.60;75.70
11538;DHT22;50159;49.426;11.182;2023-04-25T10:51:32;12.60;74.50
11538;DHT22;50159;49.426;11.182;2023-04-25T10:54:19;12.60;73.80
11538;DHT22;50159;49.426;11.182;2023-04-25T10:56:48;12.50;71.20
11538;DHT22;50159;49.426;11.182;2023-04-25T10:59:18;12.40;68.40
11538;DHT22;50159;49.426;11.182;2023-04-25T11:01:47;12.20;66.30
11538;DHT22;50159;49.426;11.182;2023-04-25T11:04:30;12.20;68.10
11538;DHT22;50159;49.426;11.182;2023-04-25T11:09:39;12.10;69.60
11538;DHT22;50159;49.426;11.182;2023-04-25T11:12:10;12.40;71.70
11538;DHT22;50159;49.426;11.182;2023-04-25T11:14:38;12.90;70.20
11538;DHT22;50159;49.426;11.182;2023-04-25T11:17:06;13.40;66.10
11538;DHT22;50159;49.426;11.182;2023-04-25T11:19:33;13.90;64.30
11538;DHT22;50159;49.426;11.182;2023-04-25T11:22:01;14.20;60.20
11538;DHT22;50159;49.426;11.182;2023-04-25T11:24:29;14.30;59.90
11538;DHT22;50159;49.426;11.182;2023-04-25T11:26:58;14.40;61.40
11538;DHT22;50159;49.426;11.182;2023-04-25T11:29:29;14.30;57.00
11538;DHT22;50159;49.426;11.182;2023-04-25T11:31:56;14.00;56.80
11538;DHT22;50159;49.426;11.182;2023-04-25T11:34:25;13.70;58.10
11538;DHT22;50159;49.426;11.182;2023-04-25T11:36:52;13.60;59.60
11538;DHT22;50159;49.426;11.182;2023-04-25T11:39:20;13.30;59.40
11538;DHT22;50159;49.426;11.182;2023-04-25T11:41:47;13.10;59.70
11538;DHT22;50159;49.426;11.182;2023-04-25T11:44:18;13.00;59.70
11538;DHT22;50159;49.426;11.182;2023-04-25T11:46:45;12.90;59.80
11538;DHT22;50159;49.426;11.182;2023-04-25T11:49:16;12.90;60.90
11538;DHT22;50159;49.426;11.182;2023-04-25T11:51:46;13.00;62.60
11538;DHT22;50159;49.426;11.182;2023-04-25T11:54:14;13.10;61.70
11538;DHT22;50159;49.426;11.182;2023-04-25T11:56:42;12.90;59.50
11538;DHT22;50159;49.426;11.182;2023-04-25T11:59:09;12.80;60.80
11538;DHT22;50159;49.426;11.182;2023-04-25T12:01:38;12.70;60.60
11538;DHT22;50159;49.426;11.182;2023-04-25T12:04:13;12.50;61.20
11538;DHT22;50159;49.426;11.182;2023-04-25T12:06:42;12.50;62.90
11538;DHT22;50159;49.426;11.182;2023-04-25T12:09:10;12.60;63.50
11538;DHT22;50159;49.426;11.182;2023-04-25T12:11:44;13.10;64.80
11538;DHT22;50159;49.426;11.182;2023-04-25T12:14:12;13.80;62.00
11538;DHT22;50159;49.426;11.182;2023-04-25T12:16:48;14.20;59.70
11538;DHT22;50159;49.426;11.182;2023-04-25T12:19:15;14.60;58.70
11538;DHT22;50159;49.426;11.182;2023-04-25T12:21:43;14.90;56.20
11538;DHT22;50159;49.426;11.182;2023-04-25T12:24:25;15.10;54.20
11538;DHT22;50159;49.426;11.182;2023-04-25T12:27:00;15.00;53.10
11538;DHT22;50159;49.426;11.182;2023-04-25T12:29:29;14.80;53.40
11538;DHT22;50159;49.426;11.182;2023-04-25T12:32:08;14.50;53.50
11538;DHT22;50159;49.426;11.182;2023-04-25T12:34:34;14.00;54.20
11538;DHT22;50159;49.426;11.182;2023-04-25T12:37:05;13.70;55.60
11538;DHT22;50159;49.426;11.182;2023-04-25T12:39:31;13.60;56.20
11538;DHT22;50159;49.426;11.182;2023-04-25T12:41:58;13.30;56.70
11538;DHT22;50159;49.426;11.182;2023-04-25T12:44:26;13.30;57.40
11538;DHT22;50159;49.426;11.182;2023-04-25T12:46:52;13.10;56.30
11538;DHT22;50159;49.426;11.182;2023-04-25T12:49:21;13.10;56.00
11538;DHT22;50159;49.426;11.182;2023-04-25T12:51:47;13.10;55.80
11538;DHT22;50159;49.426;11.182;2023-04-25T12:54:14;13.20;56.00
11538;DHT22;50159;49.426;11.182;2023-04-25T12:56:41;13.10;55.80
11538;DHT22;50159;49.426;11.182;2023-04-25T12:59:08;13.10;55.60
11538;DHT22;50159;49.426;11.182;2023-04-25T13:01:35;13.00;55.50
11538;DHT22;50159;49.426;11.182;2023-04-25T13:04:03;12.80;56.00
11538;DHT22;50159;49.426;11.182;2023-04-25T13:06:30;12.80;56.50
11538;DHT22;50159;49.426;11.182;2023-04-25T13:08:57;12.60;57.00
11538;DHT22;50159;49.426;11.182;2023-04-25T13:11:24;12.50;56.30
11538;DHT22;50159;49.426;11.182;2023-04-25T13:13:51;12.50;56.80
11538;DHT22;50159;49.426;11.182;2023-04-25T13:16:18;12.50;57.10
11538;DHT22;50159;49.426;11.182;2023-04-25T13:18:47;12.80;57.60
11538;DHT22;50159;49.426;11.182;2023-04-25T13:21:13;13.10;57.10
11538;DHT22;50159;49.426;11.182;2023-04-25T13:23:40;13.30;55.80
11538;DHT22;50159;49.426;11.182;2023-04-25T13:26:09;13.60;56.70
11538;DHT22;50159;49.426;11.182;2023-04-25T13:28:35;14.00;56.50
11538;DHT22;50159;49.426;11.182;2023-04-25T13:31:02;14.20;54.40
11538;DHT22;50159;49.426;11.182;2023-04-25T13:33:29;14.30;54.70
11538;DHT22;50159;49.426;11.182;2023-04-25T13:35:56;14.10;54.20
11538;DHT22;50159;49.426;11.182;2023-04-25T13:38:24;14.00;54.70
11538;DHT22;50159;49.426;11.182;2023-04-25T13:40:52;13.90;54.80
11538;DHT22;50159;49.426;11.182;2023-04-25T13:43:20;13.90;55.30
11538;DHT22;50159;49.426;11.182;2023-04-25T13:45:51;13.80;55.10
11538;DHT22;50159;49.426;11.182;2023-04-25T13:48:18;13.60;54.20
11538;DHT22;50159;49.426;11.182;2023-04-25T13:50:46;13.50;54.10
11538;DHT22;50159;49.426;11.182;2023-04-25T13:53:13;13.40;54.70
11538;DHT22;50159;49.426;11.182;2023-04-25T13:55:39;13.30;55.30
11538;DHT22;50159;49.426;11.182;2023-04-25T13:58:06;13.00;55.10
11538;DHT22;50159;49.426;11.182;2023-04-25T14:00:38;12.90;56.20
11538;DHT22;50159;49.426;11.182;2023-04-25T14:03:06;12.70;56.50
11538;DHT22;50159;49.426;11.182;2023-04-25T14:05:35;12.40;56.50
11538;DHT22;50159;49.426;11.182;2023-04-25T14:08:06;12.20;57.90
11538;DHT22;50159;49.426;11.182;2023-04-25T14:10:35;12.10;58.20
11538;DHT22;50159;49.426;11.182;2023-04-25T14:13:02;11.90;58.30
11538;DHT22;50159;49.426;11.182;2023-04-25T14:15:33;11.70;58.40
11538;DHT22;50159;49.426;11.182;2023-04-25T14:18:00;11.50;58.50
11538;DHT22;50159;49.426;11.182;2023-04-25T14:20:28;11.40;59.20
11538;DHT22;50159;49.426;11.182;2023-04-25T14:22:58;11.30;59.30
11538;DHT22;50159;49.426;11.182;2023-04-25T14:25:25;11.40;59.10
11538;DHT22;50159;49.426;11.182;2023-04-25T14:27:52;11.50;59.60
11538;DHT22;50159;49.426;11.182;2023-04-25T14:30:19;11.50;59.20
11538;DHT22;50159;49.426;11.182;2023-04-25T14:32:49;11.70;59.70
11538;DHT22;50159;49.426;11.182;2023-04-25T14:35:16;11.70;59.00
11538;DHT22;50159;49.426;11.182;2023-04-25T14:37:43;11.70;58.90
11538;DHT22;50159;49.426;11.182;2023-04-25T14:40:11;11.60;58.60
11538;DHT22;50159;49.426;11.182;2023-04-25T14:42:39;11.60;60.00
11538;DHT22;50159;49.426;11.182;2023-04-25T14:45:08;11.50;60.20
11538;DHT22;50159;49.426;11.182;2023-04-25T14:47:36;11.30;59.80
11538;DHT22;50159;49.426;11.182;2023-04-25T14:50:04;11.20;59.90
11538;DHT22;50159;49.426;11.182;2023-04-25T14:52:31;11.10;60.50
11538;DHT22;50159;49.426;11.182;2023-04-25T14:54:58;11.10;62.20
11538;DHT22;50159;49.426;11.182;2023-04-25T14:57:26;11.00;62.10
11538;DHT22;50159;49.426;11.182;2023-04-25T14:59:53;11.00;62.70
11538;DHT22;50159;49.426;11.182;2023-04-25T15:02:19;10.90;62.70
11538;DHT22;50159;49.426;11.182;2023-04-25T15:04:46;10.80;62.90
11538;DHT22;50159;49.426;11.182;2023-04-25T15:07:13;10.80;63.70
11538;DHT22;50159;49.426;11.182;2023-04-25T15:09:43;10.80;64.50
11538;DHT22;50159;49.426;11.182;2023-04-25T15:12:10;10.80;64.20
11538;DHT22;50159;49.426;11.182;2023-04-25T15:14:37;10.80;64.60
11538;DHT22;50159;49.426;11.182;2023-04-25T15:17:04;10.90;64.60
11538;DHT22;50159;49.426;11.182;2023-04-25T15:19:30;10.90;64.50
11538;DHT22;50159;49.426;11.182;2023-04-25T15:21:58;10.90;64.30
11538;DHT22;50159;49.426;11.182;2023-04-25T15:24:27;10.90;64.70
11538;DHT22;50159;49.426;11.182;2023-04-25T15:26:55;11.00;65.80
11538;DHT22;50159;49.426;11.182;2023-04-25T15:29:21;11.10;64.80
11538;DHT22;50159;49.426;11.182;2023-04-25T15:31:48;11.20;64.40
11538;DHT22;50159;49.426;11.182;2023-04-25T15:34:15;11.50;64.20